sensor_id;sensor_type;location;lat;lon;timestamp;P1;P2;P0
57884;PMS5003;43703;51.060;-0.086;2023-03-01T00:00:19;37;35;
57884;PMS5003;43703;51.060;-0.086;2023-03-01T00:02:44;47;45;
57884;PMS5003;43703;51.060;-0.086;2023-03-01T00:05:10;43;39;
57884;PMS5003;43703;51.060;-0.086;2023-03-01T00:07:35;42;39;
57884;PMS5003;43703;51.060;-0.086;2023-03-01T00:10:00;44;37;
57884;PMS5003;43703;51.060;-0.086;2023-03-01T00:12:25;39;39;
57884;PMS5003;43703;51.060;-0.086;2023-03-01T00:14:51;40;40;
57884;PMS5003;43703;51.060;-0.086;2023-03-01T00:17:18;44;43;
57884;PMS5003;43703;51.060;-0.086;2023-03-01T00:19:42;36;35;
57884;PMS5003;43703;51.060;-0.086;2023-03-01T00:22:08;42;42;
57884;PMS5003;43703;51.060;-0.086;2023-03-01T00:24:34;45;40;
57884;PMS5003;43703;51.060;-0.086;2023-03-01T00:26:59;43;39;
57884;PMS5003;43703;51.060;-0.086;2023-03-01T00:29:25;44;39;
57884;PMS5003;43703;51.060;-0.086;2023-03-01T00:31:51;42;38;
57884;PMS5003;43703;51.060;-0.086;2023-03-01T00:34:17;43;40;
57884;PMS5003;43703;51.060;-0.086;2023-03-01T00:36:42;46;44;
57884;PMS5003;43703;51.060;-0.086;2023-03-01T00:39:09;38;37;
57884;PMS5003;43703;51.060;-0.086;2023-03-01T00:41:34;48;42;
57884;PMS5003;43703;51.060;-0.086;2023-03-01T00:43:59;50;46;
57884;PMS5003;43703;51.060;-0.086;2023-03-01T00:46:26;50;46;
57884;PMS5003;43703;51.060;-0.086;2023-03-01T00:48:50;53;52;
57884;PMS5003;43703;51.060;-0.086;2023-03-01T00:51:15;53;52;
57884;PMS5003;43703;51.060;-0.086;2023-03-01T00:53:41;49;48;
57884;PMS5003;43703;51.060;-0.086;2023-03-01T00:56:07;58;53;
57884;PMS5003;43703;51.060;-0.086;2023-03-01T00:58:32;51;49;
57884;PMS5003;43703;51.060;-0.086;2023-03-01T01:00:58;61;57;
57884;PMS5003;43703;51.060;-0.086;2023-03-01T01:03:23;58;54;
57884;PMS5003;43703;51.060;-0.086;2023-03-01T01:05:49;60;55;
57884;PMS5003;43703;51.060;-0.086;2023-03-01T01:08:15;64;59;
57884;PMS5003;43703;51.060;-0.086;2023-03-01T01:10:40;59;55;
57884;PMS5003;43703;51.060;-0.086;2023-03-01T01:13:06;53;49;
57884;PMS5003;43703;51.060;-0.086;2023-03-01T01:15:33;56;52;
57884;PMS5003;43703;51.060;-0.086;2023-03-01T01:17:56;54;53;
57884;PMS5003;43703;51.060;-0.086;2023-03-01T01:20:22;57;56;
57884;PMS5003;43703;51.060;-0.086;2023-03-01T01:22:47;59;53;
57884;PMS5003;43703;51.060;-0.086;2023-03-01T01:25:13;68;61;
57884;PMS5003;43703;51.060;-0.086;2023-03-01T01:27:38;66;61;
57884;PMS5003;43703;51.060;-0.086;2023-03-01T01:30:04;66;63;
57884;PMS5003;43703;51.060;-0.086;2023-03-01T01:32:29;63;61;
57884;PMS5003;43703;51.060;-0.086;2023-03-01T01:34:54;57;57;
57884;PMS5003;43703;51.060;-0.086;2023-03-01T01:37:21;59;57;
57884;PMS5003;43703;51.060;-0.086;2023-03-01T01:39:45;65;60;
57884;PMS5003;43703;51.060;-0.086;2023-03-01T01:42:12;57;57;
57884;PMS5003;43703;51.060;-0.086;2023-03-01T01:44:36;60;57;
57884;PMS5003;43703;51.060;-0.086;2023-03-01T01:47:06;64;61;
57884;PMS5003;43703;51.060;-0.086;2023-03-01T01:49:30;57;55;
57884;PMS5003;43703;51.060;-0.086;2023-03-01T01:51:55;66;65;
57884;PMS5003;43703;51.060;-0.086;2023-03-01T01:54:19;56;52;
57884;PMS5003;43703;51.060;-0.086;2023-03-01T01:56:44;63;58;
57884;PMS5003;43703;51.060;-0.086;2023-03-01T01:59:09;54;51;
57884;PMS5003;43703;51.060;-0.086;2023-03-01T02:01:35;68;65;
57884;PMS5003;43703;51.060;-0.086;2023-03-01T02:04:00;62;57;
57884;PMS5003;43703;51.060;-0.086;2023-03-01T02:06:26;69;64;
57884;PMS5003;43703;51.060;-0.086;2023-03-01T02:08:50;65;61;
57884;PMS5003;43703;51.060;-0.086;2023-03-01T02:11:16;62;59;
57884;PMS5003;43703;51.060;-0.086;2023-03-01T02:13:42;70;66;
57884;PMS5003;43703;51.060;-0.086;2023-03-01T02:16:08;61;56;
57884;PMS5003;43703;51.060;-0.086;2023-03-01T02:18:32;61;58;
57884;PMS5003;43703;51.060;-0.086;2023-03-01T02:21:02;64;61;
57884;PMS5003;43703;51.060;-0.086;2023-03-01T02:23:23;58;57;
57884;PMS5003;43703;51.060;-0.086;2023-03-01T02:25:50;53;53;
57884;PMS5003;43703;51.060;-0.086;2023-03-01T02:30:39;53;50;
57884;PMS5003;43703;51.060;-0.086;2023-03-01T02:33:06;64;58;
57884;PMS5003;43703;51.060;-0.086;2023-03-01T02:35:32;56;56;
57884;PMS5003;43703;51.060;-0.086;2023-03-01T02:37:56;57;57;
57884;PMS5003;43703;51.060;-0.086;2023-03-01T02:40:21;60;55;
57884;PMS5003;43703;51.060;-0.086;2023-03-01T02:42:48;62;61;
57884;PMS5003;43703;51.060;-0.086;2023-03-01T02:45:13;61;59;
57884;PMS5003;43703;51.060;-0.086;2023-03-01T02:47:38;60;57;
57884;PMS5003;43703;51.060;-0.086;2023-03-01T02:50:09;69;57;
57884;PMS5003;43703;51.060;-0.086;2023-03-01T02:52:34;55;55;
57884;PMS5003;43703;51.060;-0.086;2023-03-01T02:54:57;63;60;
57884;PMS5003;43703;51.060;-0.086;2023-03-01T02:57:22;60;57;
57884;PMS5003;43703;51.060;-0.086;2023-03-01T02:59:47;54;50;
57884;PMS5003;43703;51.060;-0.086;2023-03-01T03:04:38;57;52;
57884;PMS5003;43703;51.060;-0.086;2023-03-01T03:07:04;56;53;
57884;PMS5003;43703;51.060;-0.086;2023-03-01T03:09:29;59;53;
57884;PMS5003;43703;51.060;-0.086;2023-03-01T03:11:55;54;54;
57884;PMS5003;43703;51.060;-0.086;2023-03-01T03:14:20;53;51;
57884;PMS5003;43703;51.060;-0.086;2023-03-01T03:16:47;53;50;
57884;PMS5003;43703;51.060;-0.086;2023-03-01T03:19:12;54;52;
57884;PMS5003;43703;51.060;-0.086;2023-03-01T03:21:36;58;54;
57884;PMS5003;43703;51.060;-0.086;2023-03-01T03:24:02;51;51;
57884;PMS5003;43703;51.060;-0.086;2023-03-01T03:26:27;57;57;
57884;PMS5003;43703;51.060;-0.086;2023-03-01T03:28:53;50;49;
57884;PMS5003;43703;51.060;-0.086;2023-03-01T03:31:18;45;44;
57884;PMS5003;43703;51.060;-0.086;2023-03-01T03:33:43;49;46;
57884;PMS5003;43703;51.060;-0.086;2023-03-01T03:36:09;48;44;
57884;PMS5003;43703;51.060;-0.086;2023-03-01T03:38:34;50;46;
57884;PMS5003;43703;51.060;-0.086;2023-03-01T03:41:00;49;46;
57884;PMS5003;43703;51.060;-0.086;2023-03-01T03:43:25;41;40;
57884;PMS5003;43703;51.060;-0.086;2023-03-01T03:45:51;45;43;
57884;PMS5003;43703;51.060;-0.086;2023-03-01T03:48:16;46;43;
57884;PMS5003;43703;51.060;-0.086;2023-03-01T03:50:46;48;43;
57884;PMS5003;43703;51.060;-0.086;2023-03-01T03:53:08;46;42;
57884;PMS5003;43703;51.060;-0.086;2023-03-01T03:55:33;45;42;
57884;PMS5003;43703;51.060;-0.086;2023-03-01T03:57:58;43;40;
57884;PMS5003;43703;51.060;-0.086;2023-03-01T04:00:23;41;41;
57884;PMS5003;43703;51.060;-0.086;2023-03-01T04:02:49;41;37;
57884;PMS5003;43703;51.060;-0.086;2023-03-01T04:05:15;39;36;
57884;PMS5003;43703;51.060;-0.086;2023-03-01T04:07:39;46;44;
57884;PMS5003;43703;51.060;-0.086;2023-03-01T04:10:06;45;42;
57884;PMS5003;43703;51.060;-0.086;2023-03-01T04:12:30;43;42;
57884;PMS5003;43703;51.060;-0.086;2023-03-01T04:14:55;44;40;
57884;PMS5003;43703;51.060;-0.086;2023-03-01T04:17:20;40;33;
57884;PMS5003;43703;51.060;-0.086;2023-03-01T04:19:46;43;37;
57884;PMS5003;43703;51.060;-0.086;2023-03-01T04:22:11;34;34;
57884;PMS5003;43703;51.060;-0.086;2023-03-01T04:24:36;28;27;
57884;PMS5003;43703;51.060;-0.086;2023-03-01T04:27:02;37;35;
57884;PMS5003;43703;51.060;-0.086;2023-03-01T04:29:27;34;31;
57884;PMS5003;43703;51.060;-0.086;2023-03-01T04:31:52;34;29;
57884;PMS5003;43703;51.060;-0.086;2023-03-01T04:34:18;30;29;
57884;PMS5003;43703;51.060;-0.086;2023-03-01T04:36:43;31;30;
57884;PMS5003;43703;51.060;-0.086;2023-03-01T04:39:08;37;32;
57884;PMS5003;43703;51.060;-0.086;2023-03-01T04:41:33;38;30;
57884;PMS5003;43703;51.060;-0.086;2023-03-01T04:43:58;33;33;
57884;PMS5003;43703;51.060;-0.086;2023-03-01T04:46:24;31;28;
57884;PMS5003;43703;51.060;-0.086;2023-03-01T04:48:50;35;33;
57884;PMS5003;43703;51.060;-0.086;2023-03-01T04:51:15;31;29;
57884;PMS5003;43703;51.060;-0.086;2023-03-01T04:53:41;29;26;
57884;PMS5003;43703;51.060;-0.086;2023-03-01T04:56:06;28;26;
57884;PMS5003;43703;51.060;-0.086;2023-03-01T04:58:32;28;26;
57884;PMS5003;43703;51.060;-0.086;2023-03-01T05:00:57;28;27;
57884;PMS5003;43703;51.060;-0.086;2023-03-01T05:03:23;31;28;
57884;PMS5003;43703;51.060;-0.086;2023-03-01T05:05:49;29;26;
57884;PMS5003;43703;51.060;-0.086;2023-03-01T05:08:14;28;27;
57884;PMS5003;43703;51.060;-0.086;2023-03-01T05:10:39;26;25;
57884;PMS5003;43703;51.060;-0.086;2023-03-01T05:13:04;26;26;
57884;PMS5003;43703;51.060;-0.086;2023-03-01T05:15:30;36;32;
57884;PMS5003;43703;51.060;-0.086;2023-03-01T05:17:56;26;23;
57884;PMS5003;43703;51.060;-0.086;2023-03-01T05:20:21;25;23;
57884;PMS5003;43703;51.060;-0.086;2023-03-01T05:22:46;29;28;
57884;PMS5003;43703;51.060;-0.086;2023-03-01T05:25:12;31;29;
57884;PMS5003;43703;51.060;-0.086;2023-03-01T05:27:38;20;20;
57884;PMS5003;43703;51.060;-0.086;2023-03-01T05:30:04;27;24;
57884;PMS5003;43703;51.060;-0.086;2023-03-01T05:32:29;24;22;
57884;PMS5003;43703;51.060;-0.086;2023-03-01T05:34:54;22;22;
57884;PMS5003;43703;51.060;-0.086;2023-03-01T05:37:19;28;24;
57884;PMS5003;43703;51.060;-0.086;2023-03-01T05:39:45;25;22;
57884;PMS5003;43703;51.060;-0.086;2023-03-01T05:42:10;19;18;
57884;PMS5003;43703;51.060;-0.086;2023-03-01T05:44:35;17;17;
57884;PMS5003;43703;51.060;-0.086;2023-03-01T05:47:01;18;18;
57884;PMS5003;43703;51.060;-0.086;2023-03-01T05:49:26;19;16;
57884;PMS5003;43703;51.060;-0.086;2023-03-01T05:51:52;22;20;
57884;PMS5003;43703;51.060;-0.086;2023-03-01T05:54:17;18;15;
57884;PMS5003;43703;51.060;-0.086;2023-03-01T05:56:42;20;18;
57884;PMS5003;43703;51.060;-0.086;2023-03-01T05:59:07;23;20;
57884;PMS5003;43703;51.060;-0.086;2023-03-01T06:01:33;16;16;
57884;PMS5003;43703;51.060;-0.086;2023-03-01T06:03:58;19;16;
57884;PMS5003;43703;51.060;-0.086;2023-03-01T06:06:23;16;15;
57884;PMS5003;43703;51.060;-0.086;2023-03-01T06:08:48;15;15;
57884;PMS5003;43703;51.060;-0.086;2023-03-01T06:11:13;24;23;
57884;PMS5003;43703;51.060;-0.086;2023-03-01T06:13:40;19;19;
57884;PMS5003;43703;51.060;-0.086;2023-03-01T06:16:04;21;18;
57884;PMS5003;43703;51.060;-0.086;2023-03-01T06:18:29;19;18;
57884;PMS5003;43703;51.060;-0.086;2023-03-01T06:20:55;20;18;
57884;PMS5003;43703;51.060;-0.086;2023-03-01T06:23:20;17;17;
57884;PMS5003;43703;51.060;-0.086;2023-03-01T06:25:45;15;15;
57884;PMS5003;43703;51.060;-0.086;2023-03-01T06:28:10;20;19;
57884;PMS5003;43703;51.060;-0.086;2023-03-01T06:30:36;17;16;
57884;PMS5003;43703;51.060;-0.086;2023-03-01T06:33:01;17;17;
57884;PMS5003;43703;51.060;-0.086;2023-03-01T06:35:27;17;16;
57884;PMS5003;43703;51.060;-0.086;2023-03-01T06:37:52;15;15;
57884;PMS5003;43703;51.060;-0.086;2023-03-01T06:40:18;18;18;
57884;PMS5003;43703;51.060;-0.086;2023-03-01T06:42:43;22;19;
57884;PMS5003;43703;51.060;-0.086;2023-03-01T06:45:09;16;16;
57884;PMS5003;43703;51.060;-0.086;2023-03-01T06:47:34;18;16;
57884;PMS5003;43703;51.060;-0.086;2023-03-01T06:50:00;17;15;
57884;PMS5003;43703;51.060;-0.086;2023-03-01T06:52:26;14;14;
57884;PMS5003;43703;51.060;-0.086;2023-03-01T06:54:51;17;17;
57884;PMS5003;43703;51.060;-0.086;2023-03-01T06:57:17;20;20;
57884;PMS5003;43703;51.060;-0.086;2023-03-01T06:59:42;16;16;
57884;PMS5003;43703;51.060;-0.086;2023-03-01T07:02:09;14;14;
57884;PMS5003;43703;51.060;-0.086;2023-03-01T07:04:32;16;16;
57884;PMS5003;43703;51.060;-0.086;2023-03-01T07:06:58;14;14;
57884;PMS5003;43703;51.060;-0.086;2023-03-01T07:09:24;17;17;
57884;PMS5003;43703;51.060;-0.086;2023-03-01T07:11:49;16;16;
57884;PMS5003;43703;51.060;-0.086;2023-03-01T07:14:14;19;17;
57884;PMS5003;43703;51.060;-0.086;2023-03-01T07:16:39;16;15;
57884;PMS5003;43703;51.060;-0.086;2023-03-01T07:19:05;20;20;
57884;PMS5003;43703;51.060;-0.086;2023-03-01T07:21:30;21;21;
57884;PMS5003;43703;51.060;-0.086;2023-03-01T07:23:55;14;14;
57884;PMS5003;43703;51.060;-0.086;2023-03-01T07:26:21;19;16;
57884;PMS5003;43703;51.060;-0.086;2023-03-01T07:28:47;20;20;
57884;PMS5003;43703;51.060;-0.086;2023-03-01T07:31:12;35;32;
57884;PMS5003;43703;51.060;-0.086;2023-03-01T07:33:37;19;18;
57884;PMS5003;43703;51.060;-0.086;2023-03-01T07:36:03;18;17;
57884;PMS5003;43703;51.060;-0.086;2023-03-01T07:38:28;20;20;
57884;PMS5003;43703;51.060;-0.086;2023-03-01T07:40:53;24;23;
57884;PMS5003;43703;51.060;-0.086;2023-03-01T07:43:19;19;18;
57884;PMS5003;43703;51.060;-0.086;2023-03-01T07:45:44;16;16;
57884;PMS5003;43703;51.060;-0.086;2023-03-01T07:48:09;21;20;
57884;PMS5003;43703;51.060;-0.086;2023-03-01T07:50:35;21;21;
57884;PMS5003;43703;51.060;-0.086;2023-03-01T07:53:00;22;21;
57884;PMS5003;43703;51.060;-0.086;2023-03-01T07:55:25;18;16;
57884;PMS5003;43703;51.060;-0.086;2023-03-01T07:57:51;20;18;
57884;PMS5003;43703;51.060;-0.086;2023-03-01T08:00:16;17;17;
57884;PMS5003;43703;51.060;-0.086;2023-03-01T08:02:41;19;18;
57884;PMS5003;43703;51.060;-0.086;2023-03-01T08:05:07;18;16;
57884;PMS5003;43703;51.060;-0.086;2023-03-01T08:07:32;17;16;
57884;PMS5003;43703;51.060;-0.086;2023-03-01T08:09:57;22;21;
57884;PMS5003;43703;51.060;-0.086;2023-03-01T08:12:23;19;15;
57884;PMS5003;43703;51.060;-0.086;2023-03-01T08:14:48;16;15;
57884;PMS5003;43703;51.060;-0.086;2023-03-01T08:17:13;19;18;
57884;PMS5003;43703;51.060;-0.086;2023-03-01T08:19:39;14;13;
57884;PMS5003;43703;51.060;-0.086;2023-03-01T08:22:04;15;14;
57884;PMS5003;43703;51.060;-0.086;2023-03-01T08:24:30;14;13;
57884;PMS5003;43703;51.060;-0.086;2023-03-01T08:26:55;15;15;
57884;PMS5003;43703;51.060;-0.086;2023-03-01T08:29:21;15;12;
57884;PMS5003;43703;51.060;-0.086;2023-03-01T08:31:46;15;15;
57884;PMS5003;43703;51.060;-0.086;2023-03-01T08:34:12;12;12;
57884;PMS5003;43703;51.060;-0.086;2023-03-01T08:36:37;15;15;
57884;PMS5003;43703;51.060;-0.086;2023-03-01T08:39:02;11;11;
57884;PMS5003;43703;51.060;-0.086;2023-03-01T08:41:27;10;10;
57884;PMS5003;43703;51.060;-0.086;2023-03-01T08:43:52;12;12;
57884;PMS5003;43703;51.060;-0.086;2023-03-01T08:46:22;11;11;
57884;PMS5003;43703;51.060;-0.086;2023-03-01T08:48:42;7;7;
57884;PMS5003;43703;51.060;-0.086;2023-03-01T08:51:08;13;11;
57884;PMS5003;43703;51.060;-0.086;2023-03-01T08:53:32;8;8;
57884;PMS5003;43703;51.060;-0.086;2023-03-01T08:55:59;10;10;
57884;PMS5003;43703;51.060;-0.086;2023-03-01T08:58:22;10;10;
57884;PMS5003;43703;51.060;-0.086;2023-03-01T09:00:47;8;8;
57884;PMS5003;43703;51.060;-0.086;2023-03-01T09:03:12;11;11;
57884;PMS5003;43703;51.060;-0.086;2023-03-01T09:05:38;10;10;
57884;PMS5003;43703;51.060;-0.086;2023-03-01T09:08:03;12;10;
57884;PMS5003;43703;51.060;-0.086;2023-03-01T09:10:28;10;10;
57884;PMS5003;43703;51.060;-0.086;2023-03-01T09:12:53;8;8;
57884;PMS5003;43703;51.060;-0.086;2023-03-01T09:15:19;11;11;
57884;PMS5003;43703;51.060;-0.086;2023-03-01T09:17:44;12;11;
57884;PMS5003;43703;51.060;-0.086;2023-03-01T09:20:10;9;9;
57884;PMS5003;43703;51.060;-0.086;2023-03-01T09:22:35;9;9;
57884;PMS5003;43703;51.060;-0.086;2023-03-01T09:25:00;8;8;
57884;PMS5003;43703;51.060;-0.086;2023-03-01T09:27:25;10;10;
57884;PMS5003;43703;51.060;-0.086;2023-03-01T09:29:50;10;9;
57884;PMS5003;43703;51.060;-0.086;2023-03-01T09:32:15;9;9;
57884;PMS5003;43703;51.060;-0.086;2023-03-01T09:34:41;9;8;
57884;PMS5003;43703;51.060;-0.086;2023-03-01T09:37:06;8;8;
57884;PMS5003;43703;51.060;-0.086;2023-03-01T09:39:31;12;12;
57884;PMS5003;43703;51.060;-0.086;2023-03-01T09:41:58;10;10;
57884;PMS5003;43703;51.060;-0.086;2023-03-01T09:44:26;9;9;
57884;PMS5003;43703;51.060;-0.086;2023-03-01T09:46:46;9;9;
57884;PMS5003;43703;51.060;-0.086;2023-03-01T09:49:12;9;9;
57884;PMS5003;43703;51.060;-0.086;2023-03-01T09:51:36;9;9;
57884;PMS5003;43703;51.060;-0.086;2023-03-01T09:54:01;8;8;
57884;PMS5003;43703;51.060;-0.086;2023-03-01T09:56:28;8;8;
57884;PMS5003;43703;51.060;-0.086;2023-03-01T09:58:53;8;7;
57884;PMS5003;43703;51.060;-0.086;2023-03-01T10:03:43;9;8;
57884;PMS5003;43703;51.060;-0.086;2023-03-01T10:06:08;10;8;
57884;PMS5003;43703;51.060;-0.086;2023-03-01T10:08:34;10;7;
57884;PMS5003;43703;51.060;-0.086;2023-03-01T10:10:57;11;11;
57884;PMS5003;43703;51.060;-0.086;2023-03-01T10:13:24;8;8;
57884;PMS5003;43703;51.060;-0.086;2023-03-01T10:15:48;10;10;
57884;PMS5003;43703;51.060;-0.086;2023-03-01T10:18:14;12;11;
57884;PMS5003;43703;51.060;-0.086;2023-03-01T10:20:42;8;8;
57884;PMS5003;43703;51.060;-0.086;2023-03-01T10:23:04;10;9;
57884;PMS5003;43703;51.060;-0.086;2023-03-01T10:25:34;7;7;
57884;PMS5003;43703;51.060;-0.086;2023-03-01T10:27:54;8;8;
57884;PMS5003;43703;51.060;-0.086;2023-03-01T10:30:19;7;6;
57884;PMS5003;43703;51.060;-0.086;2023-03-01T10:32:43;9;7;
57884;PMS5003;43703;51.060;-0.086;2023-03-01T10:37:33;6;6;
57884;PMS5003;43703;51.060;-0.086;2023-03-01T10:40:01;7;7;
57884;PMS5003;43703;51.060;-0.086;2023-03-01T10:42:25;5;5;
57884;PMS5003;43703;51.060;-0.086;2023-03-01T10:44:49;5;5;
57884;PMS5003;43703;51.060;-0.086;2023-03-01T10:47:16;6;6;
57884;PMS5003;43703;51.060;-0.086;2023-03-01T10:49:39;4;4;
57884;PMS5003;43703;51.060;-0.086;2023-03-01T10:54:29;6;6;
57884;PMS5003;43703;51.060;-0.086;2023-03-01T10:56:55;5;5;
57884;PMS5003;43703;51.060;-0.086;2023-03-01T10:59:22;4;4;
57884;PMS5003;43703;51.060;-0.086;2023-03-01T11:01:44;3;3;
57884;PMS5003;43703;51.060;-0.086;2023-03-01T11:04:10;5;4;
57884;PMS5003;43703;51.060;-0.086;2023-03-01T11:06:35;5;5;
57884;PMS5003;43703;51.060;-0.086;2023-03-01T11:09:01;4;4;
57884;PMS5003;43703;51.060;-0.086;2023-03-01T11:11:29;5;5;
57884;PMS5003;43703;51.060;-0.086;2023-03-01T11:13:51;5;5;
57884;PMS5003;43703;51.060;-0.086;2023-03-01T11:16:14;5;4;
57884;PMS5003;43703;51.060;-0.086;2023-03-01T11:18:39;10;7;
57884;PMS5003;43703;51.060;-0.086;2023-03-01T11:21:04;4;4;
57884;PMS5003;43703;51.060;-0.086;2023-03-01T11:23:30;5;5;
57884;PMS5003;43703;51.060;-0.086;2023-03-01T11:25:55;7;7;
57884;PMS5003;43703;51.060;-0.086;2023-03-01T11:28:20;5;5;
57884;PMS5003;43703;51.060;-0.086;2023-03-01T11:30:47;4;4;
57884;PMS5003;43703;51.060;-0.086;2023-03-01T11:33:13;7;7;
57884;PMS5003;43703;51.060;-0.086;2023-03-01T11:35:35;4;4;
57884;PMS5003;43703;51.060;-0.086;2023-03-01T11:38:03;5;5;
57884;PMS5003;43703;51.060;-0.086;2023-03-01T11:40:26;5;5;
57884;PMS5003;43703;51.060;-0.086;2023-03-01T11:42:55;4;4;
57884;PMS5003;43703;51.060;-0.086;2023-03-01T11:45:15;3;3;
57884;PMS5003;43703;51.060;-0.086;2023-03-01T11:47:46;5;5;
57884;PMS5003;43703;51.060;-0.086;2023-03-01T11:50:07;4;4;
57884;PMS5003;43703;51.060;-0.086;2023-03-01T11:52:33;3;3;
57884;PMS5003;43703;51.060;-0.086;2023-03-01T11:54:59;5;5;
57884;PMS5003;43703;51.060;-0.086;2023-03-01T11:57:25;9;9;
57884;PMS5003;43703;51.060;-0.086;2023-03-01T11:59:54;5;5;
57884;PMS5003;43703;51.060;-0.086;2023-03-01T12:04:42;3;3;
57884;PMS5003;43703;51.060;-0.086;2023-03-01T12:07:01;5;5;
57884;PMS5003;43703;51.060;-0.086;2023-03-01T12:09:30;5;5;
57884;PMS5003;43703;51.060;-0.086;2023-03-01T12:12:02;4;4;
57884;PMS5003;43703;51.060;-0.086;2023-03-01T12:14:21;10;9;
57884;PMS5003;43703;51.060;-0.086;2023-03-01T12:19:11;6;6;
57884;PMS5003;43703;51.060;-0.086;2023-03-01T12:21:36;6;6;
57884;PMS5003;43703;51.060;-0.086;2023-03-01T12:26:25;7;7;
57884;PMS5003;43703;51.060;-0.086;2023-03-01T12:28:51;4;3;
57884;PMS5003;43703;51.060;-0.086;2023-03-01T12:31:29;4;4;
57884;PMS5003;43703;51.060;-0.086;2023-03-01T12:33:40;4;3;
57884;PMS5003;43703;51.060;-0.086;2023-03-01T12:38:32;4;4;
57884;PMS5003;43703;51.060;-0.086;2023-03-01T12:43:22;5;3;
57884;PMS5003;43703;51.060;-0.086;2023-03-01T12:45:47;7;6;
57884;PMS5003;43703;51.060;-0.086;2023-03-01T12:48:16;4;4;
57884;PMS5003;43703;51.060;-0.086;2023-03-01T12:50:36;4;4;
57884;PMS5003;43703;51.060;-0.086;2023-03-01T12:52:59;4;3;
57884;PMS5003;43703;51.060;-0.086;2023-03-01T12:55:27;4;4;
57884;PMS5003;43703;51.060;-0.086;2023-03-01T12:57:51;12;11;
57884;PMS5003;43703;51.060;-0.086;2023-03-01T13:00:20;4;4;
57884;PMS5003;43703;51.060;-0.086;2023-03-01T13:02:40;8;6;
57884;PMS5003;43703;51.060;-0.086;2023-03-01T13:05:07;4;4;
57884;PMS5003;43703;51.060;-0.086;2023-03-01T13:07:30;5;5;
57884;PMS5003;43703;51.060;-0.086;2023-03-01T13:09:57;5;5;
57884;PMS5003;43703;51.060;-0.086;2023-03-01T13:14:45;5;5;
57884;PMS5003;43703;51.060;-0.086;2023-03-01T13:19:35;2;2;
57884;PMS5003;43703;51.060;-0.086;2023-03-01T13:22:00;6;6;
57884;PMS5003;43703;51.060;-0.086;2023-03-01T13:24:26;5;4;
57884;PMS5003;43703;51.060;-0.086;2023-03-01T13:34:06;6;4;
57884;PMS5003;43703;51.060;-0.086;2023-03-01T13:38:56;6;5;
57884;PMS5003;43703;51.060;-0.086;2023-03-01T13:43:46;4;4;
57884;PMS5003;43703;51.060;-0.086;2023-03-01T13:46:12;5;5;
57884;PMS5003;43703;51.060;-0.086;2023-03-01T13:48:36;7;7;
57884;PMS5003;43703;51.060;-0.086;2023-03-01T13:51:03;5;4;
57884;PMS5003;43703;51.060;-0.086;2023-03-01T13:53:29;4;4;
57884;PMS5003;43703;51.060;-0.086;2023-03-01T13:55:52;4;4;
57884;PMS5003;43703;51.060;-0.086;2023-03-01T13:58:20;6;5;
57884;PMS5003;43703;51.060;-0.086;2023-03-01T14:00:42;6;6;
57884;PMS5003;43703;51.060;-0.086;2023-03-01T14:03:09;6;6;
57884;PMS5003;43703;51.060;-0.086;2023-03-01T14:05:32;6;5;
57884;PMS5003;43703;51.060;-0.086;2023-03-01T14:07:57;5;5;
57884;PMS5003;43703;51.060;-0.086;2023-03-01T14:10:22;6;6;
57884;PMS5003;43703;51.060;-0.086;2023-03-01T14:12:48;5;5;
57884;PMS5003;43703;51.060;-0.086;2023-03-01T14:15:15;5;5;
57884;PMS5003;43703;51.060;-0.086;2023-03-01T14:17:40;6;5;
57884;PMS5003;43703;51.060;-0.086;2023-03-01T14:20:07;8;8;
57884;PMS5003;43703;51.060;-0.086;2023-03-01T14:22:28;4;4;
57884;PMS5003;43703;51.060;-0.086;2023-03-01T14:24:54;3;3;
57884;PMS5003;43703;51.060;-0.086;2023-03-01T14:27:18;4;4;
57884;PMS5003;43703;51.060;-0.086;2023-03-01T14:29:43;3;3;
57884;PMS5003;43703;51.060;-0.086;2023-03-01T14:32:08;4;3;
57884;PMS5003;43703;51.060;-0.086;2023-03-01T14:34:33;4;3;
57884;PMS5003;43703;51.060;-0.086;2023-03-01T14:39:24;2;2;
57884;PMS5003;43703;51.060;-0.086;2023-03-01T14:41:48;5;5;
57884;PMS5003;43703;51.060;-0.086;2023-03-01T14:46:39;5;4;
57884;PMS5003;43703;51.060;-0.086;2023-03-01T14:49:05;7;7;
57884;PMS5003;43703;51.060;-0.086;2023-03-01T14:51:29;7;6;
57884;PMS5003;43703;51.060;-0.086;2023-03-01T14:53:54;6;4;
57884;PMS5003;43703;51.060;-0.086;2023-03-01T14:56:20;5;5;
57884;PMS5003;43703;51.060;-0.086;2023-03-01T14:58:45;4;4;
57884;PMS5003;43703;51.060;-0.086;2023-03-01T15:01:12;4;4;
57884;PMS5003;43703;51.060;-0.086;2023-03-01T15:03:36;4;4;
57884;PMS5003;43703;51.060;-0.086;2023-03-01T15:06:00;3;3;
57884;PMS5003;43703;51.060;-0.086;2023-03-01T15:08:25;7;4;
57884;PMS5003;43703;51.060;-0.086;2023-03-01T15:13:20;4;4;
57884;PMS5003;43703;51.060;-0.086;2023-03-01T15:15:41;3;3;
57884;PMS5003;43703;51.060;-0.086;2023-03-01T15:18:11;4;4;
57884;PMS5003;43703;51.060;-0.086;2023-03-01T15:20:30;6;4;
57884;PMS5003;43703;51.060;-0.086;2023-03-01T15:22:55;2;2;
57884;PMS5003;43703;51.060;-0.086;2023-03-01T15:25:21;4;3;
57884;PMS5003;43703;51.060;-0.086;2023-03-01T15:27:45;4;4;
57884;PMS5003;43703;51.060;-0.086;2023-03-01T15:30:13;6;4;
57884;PMS5003;43703;51.060;-0.086;2023-03-01T15:32:36;3;3;
57884;PMS5003;43703;51.060;-0.086;2023-03-01T15:35:01;5;5;
57884;PMS5003;43703;51.060;-0.086;2023-03-01T15:39:52;4;4;
57884;PMS5003;43703;51.060;-0.086;2023-03-01T15:44:41;3;3;
57884;PMS5003;43703;51.060;-0.086;2023-03-01T15:47:07;4;4;
57884;PMS5003;43703;51.060;-0.086;2023-03-01T15:49:34;6;5;
57884;PMS5003;43703;51.060;-0.086;2023-03-01T15:51:56;6;6;
57884;PMS5003;43703;51.060;-0.086;2023-03-01T15:54:22;5;5;
57884;PMS5003;43703;51.060;-0.086;2023-03-01T15:56:46;6;5;
57884;PMS5003;43703;51.060;-0.086;2023-03-01T15:59:11;6;5;
57884;PMS5003;43703;51.060;-0.086;2023-03-01T16:01:36;5;5;
57884;PMS5003;43703;51.060;-0.086;2023-03-01T16:04:01;5;5;
57884;PMS5003;43703;51.060;-0.086;2023-03-01T16:06:26;3;3;
57884;PMS5003;43703;51.060;-0.086;2023-03-01T16:08:51;5;5;
57884;PMS5003;43703;51.060;-0.086;2023-03-01T16:11:17;8;7;
57884;PMS5003;43703;51.060;-0.086;2023-03-01T16:13:41;5;5;
57884;PMS5003;43703;51.060;-0.086;2023-03-01T16:16:07;7;6;
57884;PMS5003;43703;51.060;-0.086;2023-03-01T16:18:32;7;6;
57884;PMS5003;43703;51.060;-0.086;2023-03-01T16:20:57;6;6;
57884;PMS5003;43703;51.060;-0.086;2023-03-01T16:23:22;3;3;
57884;PMS5003;43703;51.060;-0.086;2023-03-01T16:25:48;4;4;
57884;PMS5003;43703;51.060;-0.086;2023-03-01T16:28:12;7;5;
57884;PMS5003;43703;51.060;-0.086;2023-03-01T16:30:37;5;5;
57884;PMS5003;43703;51.060;-0.086;2023-03-01T16:33:02;4;4;
57884;PMS5003;43703;51.060;-0.086;2023-03-01T16:35:27;11;11;
57884;PMS5003;43703;51.060;-0.086;2023-03-01T16:37:52;11;11;
57884;PMS5003;43703;51.060;-0.086;2023-03-01T16:40:18;6;6;
57884;PMS5003;43703;51.060;-0.086;2023-03-01T16:42:42;5;5;
57884;PMS5003;43703;51.060;-0.086;2023-03-01T16:45:08;6;6;
57884;PMS5003;43703;51.060;-0.086;2023-03-01T16:47:33;6;6;
57884;PMS5003;43703;51.060;-0.086;2023-03-01T16:49:57;6;6;
57884;PMS5003;43703;51.060;-0.086;2023-03-01T16:52:23;7;7;